sensor_id;sensor_type;location;lat;lon;timestamp;P1;durP1;ratioP1;P2;durP2;ratioP2
27303;SDS011;14791;52.392;13.092;2022-12-15T00:00:17;17.63;;;14.07;;
27303;SDS011;14791;52.392;13.092;2022-12-15T00:03:05;20.67;;;13.50;;
27303;SDS011;14791;52.392;13.092;2022-12-15T00:05:52;19.20;;;12.67;;
27303;SDS011;14791;52.392;13.092;2022-12-15T00:08:39;16.63;;;12.27;;
27303;SDS011;14791;52.392;13.092;2022-12-15T00:11:25;16.10;;;12.30;;
27303;SDS011;14791;52.392;13.092;2022-12-15T00:14:13;14.37;;;10.40;;
27303;SDS011;14791;52.392;13.092;2022-12-15T00:16:59;15.50;;;11.47;;
27303;SDS011;14791;52.392;13.092;2022-12-15T00:19:46;16.37;;;12.67;;
27303;SDS011;14791;52.392;13.092;2022-12-15T00:22:33;13.53;;;10.07;;
27303;SDS011;14791;52.392;13.092;2022-12-15T00:25:20;14.23;;;10.53;;
27303;SDS011;14791;52.392;13.092;2022-12-15T00:28:06;12.93;;;10.27;;
27303;SDS011;14791;52.392;13.092;2022-12-15T00:30:53;13.60;;;11.50;;
27303;SDS011;14791;52.392;13.092;2022-12-15T00:33:42;11.53;;;9.70;;
27303;SDS011;14791;52.392;13.092;2022-12-15T00:36:29;13.83;;;10.27;;
27303;SDS011;14791;52.392;13.092;2022-12-15T00:39:16;11.67;;;10.00;;
27303;SDS011;14791;52.392;13.092;2022-12-15T00:41:45;16.43;;;11.27;;
27303;SDS011;14791;52.392;13.092;2022-12-15T00:44:13;12.40;;;10.50;;
27303;SDS011;14791;52.392;13.092;2022-12-15T00:46:42;15.23;;;11.97;;
27303;SDS011;14791;52.392;13.092;2022-12-15T00:49:21;11.37;;;10.17;;
27303;SDS011;14791;52.392;13.092;2022-12-15T00:52:13;16.00;;;10.93;;
27303;SDS011;14791;52.392;13.092;2022-12-15T00:55:01;15.87;;;11.53;;
27303;SDS011;14791;52.392;13.092;2022-12-15T00:57:50;11.87;;;9.67;;
27303;SDS011;14791;52.392;13.092;2022-12-15T01:00:38;15.47;;;11.33;;
27303;SDS011;14791;52.392;13.092;2022-12-15T01:03:25;12.40;;;10.17;;
27303;SDS011;14791;52.392;13.092;2022-12-15T01:06:14;11.23;;;8.70;;
27303;SDS011;14791;52.392;13.092;2022-12-15T01:09:02;14.53;;;10.47;;
27303;SDS011;14791;52.392;13.092;2022-12-15T01:11:51;14.70;;;10.53;;
27303;SDS011;14791;52.392;13.092;2022-12-15T01:14:38;14.17;;;10.33;;
27303;SDS011;14791;52.392;13.092;2022-12-15T01:17:25;11.43;;;9.70;;
27303;SDS011;14791;52.392;13.092;2022-12-15T01:20:11;10.33;;;8.57;;
27303;SDS011;14791;52.392;13.092;2022-12-15T01:22:50;12.67;;;10.57;;
27303;SDS011;14791;52.392;13.092;2022-12-15T01:25:22;12.47;;;10.03;;
27303;SDS011;14791;52.392;13.092;2022-12-15T01:27:52;11.30;;;10.03;;
27303;SDS011;14791;52.392;13.092;2022-12-15T01:30:22;9.70;;;8.27;;
27303;SDS011;14791;52.392;13.092;2022-12-15T01:32:52;11.93;;;9.67;;
27303;SDS011;14791;52.392;13.092;2022-12-15T01:35:21;12.50;;;9.63;;
27303;SDS011;14791;52.392;13.092;2022-12-15T01:37:50;13.57;;;10.00;;
27303;SDS011;14791;52.392;13.092;2022-12-15T01:40:19;9.80;;;8.40;;
27303;SDS011;14791;52.392;13.092;2022-12-15T01:43:14;12.50;;;9.63;;
27303;SDS011;14791;52.392;13.092;2022-12-15T01:45:46;11.23;;;9.77;;
27303;SDS011;14791;52.392;13.092;2022-12-15T01:48:32;11.83;;;10.00;;
27303;SDS011;14791;52.392;13.092;2022-12-15T01:53:44;11.23;;;10.10;;
27303;SDS011;14791;52.392;13.092;2022-12-15T01:56:09;11.30;;;9.40;;
27303;SDS011;14791;52.392;13.092;2022-12-15T01:58:40;13.80;;;10.83;;
27303;SDS011;14791;52.392;13.092;2022-12-15T02:01:10;12.77;;;10.27;;
27303;SDS011;14791;52.392;13.092;2022-12-15T02:03:39;14.40;;;10.20;;
27303;SDS011;14791;52.392;13.092;2022-12-15T02:06:10;13.93;;;10.60;;
27303;SDS011;14791;52.392;13.092;2022-12-15T02:08:40;14.13;;;10.77;;
27303;SDS011;14791;52.392;13.092;2022-12-15T02:11:22;10.60;;;9.33;;
27303;SDS011;14791;52.392;13.092;2022-12-15T02:14:06;11.87;;;9.33;;
27303;SDS011;14791;52.392;13.092;2022-12-15T02:16:51;10.97;;;9.23;;
27303;SDS011;14791;52.392;13.092;2022-12-15T02:19:32;16.07;;;10.53;;
27303;SDS011;14791;52.392;13.092;2022-12-15T02:27:41;9.97;;;8.73;;
27303;SDS011;14791;52.392;13.092;2022-12-15T02:30:27;11.67;;;9.07;;
27303;SDS011;14791;52.392;13.092;2022-12-15T02:33:19;8.63;;;7.77;;
27303;SDS011;14791;52.392;13.092;2022-12-15T02:36:04;11.53;;;9.53;;
27303;SDS011;14791;52.392;13.092;2022-12-15T02:38:29;9.77;;;8.17;;
27303;SDS011;14791;52.392;13.092;2022-12-15T02:41:01;9.00;;;8.07;;
27303;SDS011;14791;52.392;13.092;2022-12-15T02:43:32;11.60;;;9.80;;
27303;SDS011;14791;52.392;13.092;2022-12-15T02:46:14;13.27;;;10.07;;
27303;SDS011;14791;52.392;13.092;2022-12-15T02:49:11;12.70;;;8.53;;
27303;SDS011;14791;52.392;13.092;2022-12-15T02:52:01;13.43;;;10.20;;
27303;SDS011;14791;52.392;13.092;2022-12-15T03:00:08;14.23;;;9.67;;
27303;SDS011;14791;52.392;13.092;2022-12-15T03:02:33;13.13;;;9.87;;
27303;SDS011;14791;52.392;13.092;2022-12-15T03:05:05;11.37;;;10.17;;
27303;SDS011;14791;52.392;13.092;2022-12-15T03:07:35;12.30;;;9.10;;
27303;SDS011;14791;52.392;13.092;2022-12-15T03:10:05;7.57;;;6.83;;
27303;SDS011;14791;52.392;13.092;2022-12-15T03:12:34;9.50;;;8.13;;
27303;SDS011;14791;52.392;13.092;2022-12-15T03:15:03;12.43;;;9.53;;
27303;SDS011;14791;52.392;13.092;2022-12-15T03:17:33;14.30;;;11.43;;
27303;SDS011;14791;52.392;13.092;2022-12-15T03:20:02;11.20;;;9.87;;
27303;SDS011;14791;52.392;13.092;2022-12-15T03:22:31;14.27;;;10.37;;
27303;SDS011;14791;52.392;13.092;2022-12-15T03:25:00;13.40;;;10.23;;
27303;SDS011;14791;52.392;13.092;2022-12-15T03:27:29;11.37;;;9.50;;
27303;SDS011;14791;52.392;13.092;2022-12-15T03:29:58;7.67;;;7.00;;
27303;SDS011;14791;52.392;13.092;2022-12-15T03:32:27;12.87;;;10.03;;
27303;SDS011;14791;52.392;13.092;2022-12-15T03:34:57;12.83;;;10.70;;
27303;SDS011;14791;52.392;13.092;2022-12-15T03:37:27;14.33;;;10.67;;
27303;SDS011;14791;52.392;13.092;2022-12-15T03:39:56;12.73;;;10.67;;
27303;SDS011;14791;52.392;13.092;2022-12-15T03:42:24;15.17;;;11.23;;
27303;SDS011;14791;52.392;13.092;2022-12-15T03:45:11;16.57;;;10.50;;
27303;SDS011;14791;52.392;13.092;2022-12-15T03:47:40;12.60;;;10.20;;
27303;SDS011;14791;52.392;13.092;2022-12-15T03:50:10;11.70;;;9.20;;
27303;SDS011;14791;52.392;13.092;2022-12-15T03:52:39;14.13;;;10.90;;
27303;SDS011;14791;52.392;13.092;2022-12-15T03:55:09;14.87;;;10.87;;
27303;SDS011;14791;52.392;13.092;2022-12-15T03:57:39;11.63;;;9.63;;
27303;SDS011;14791;52.392;13.092;2022-12-15T04:00:09;13.60;;;10.63;;
27303;SDS011;14791;52.392;13.092;2022-12-15T04:02:41;11.90;;;10.57;;
27303;SDS011;14791;52.392;13.092;2022-12-15T04:05:22;10.03;;;8.47;;
27303;SDS011;14791;52.392;13.092;2022-12-15T04:07:48;15.63;;;10.50;;
27303;SDS011;14791;52.392;13.092;2022-12-15T04:10:17;10.00;;;8.50;;
27303;SDS011;14791;52.392;13.092;2022-12-15T04:12:47;8.53;;;7.27;;
27303;SDS011;14791;52.392;13.092;2022-12-15T04:15:16;7.10;;;6.37;;
27303;SDS011;14791;52.392;13.092;2022-12-15T04:17:44;12.00;;;9.53;;
27303;SDS011;14791;52.392;13.092;2022-12-15T04:20:13;8.90;;;7.97;;
27303;SDS011;14791;52.392;13.092;2022-12-15T04:22:43;15.10;;;10.83;;
27303;SDS011;14791;52.392;13.092;2022-12-15T04:25:15;13.93;;;11.03;;
27303;SDS011;14791;52.392;13.092;2022-12-15T04:28:05;14.47;;;10.83;;
27303;SDS011;14791;52.392;13.092;2022-12-15T04:30:57;13.37;;;10.23;;
27303;SDS011;14791;52.392;13.092;2022-12-15T04:33:43;13.30;;;9.90;;
27303;SDS011;14791;52.392;13.092;2022-12-15T04:36:31;13.83;;;10.63;;
27303;SDS011;14791;52.392;13.092;2022-12-15T04:39:19;9.70;;;7.27;;
27303;SDS011;14791;52.392;13.092;2022-12-15T04:42:06;9.63;;;7.17;;
27303;SDS011;14791;52.392;13.092;2022-12-15T04:44:55;8.93;;;7.97;;
27303;SDS011;14791;52.392;13.092;2022-12-15T04:47:43;13.93;;;10.47;;
27303;SDS011;14791;52.392;13.092;2022-12-15T04:50:30;11.50;;;9.37;;
27303;SDS011;14791;52.392;13.092;2022-12-15T04:53:17;12.63;;;10.07;;
27303;SDS011;14791;52.392;13.092;2022-12-15T04:56:08;8.87;;;7.67;;
27303;SDS011;14791;52.392;13.092;2022-12-15T04:58:56;10.43;;;8.67;;
27303;SDS011;14791;52.392;13.092;2022-12-15T05:01:44;8.43;;;7.00;;
27303;SDS011;14791;52.392;13.092;2022-12-15T05:04:30;11.00;;;9.67;;
27303;SDS011;14791;52.392;13.092;2022-12-15T05:07:17;10.73;;;8.23;;
27303;SDS011;14791;52.392;13.092;2022-12-15T05:10:05;10.57;;;9.47;;
27303;SDS011;14791;52.392;13.092;2022-12-15T05:12:52;11.27;;;9.80;;
27303;SDS011;14791;52.392;13.092;2022-12-15T05:15:39;11.50;;;9.20;;
27303;SDS011;14791;52.392;13.092;2022-12-15T05:18:26;11.83;;;8.67;;
27303;SDS011;14791;52.392;13.092;2022-12-15T05:21:13;11.87;;;9.70;;
27303;SDS011;14791;52.392;13.092;2022-12-15T05:24:00;8.57;;;7.27;;
27303;SDS011;14791;52.392;13.092;2022-12-15T05:26:47;12.53;;;9.40;;
27303;SDS011;14791;52.392;13.092;2022-12-15T05:29:34;11.77;;;9.10;;
27303;SDS011;14791;52.392;13.092;2022-12-15T05:32:20;12.10;;;9.27;;
27303;SDS011;14791;52.392;13.092;2022-12-15T05:34:49;8.53;;;7.13;;
27303;SDS011;14791;52.392;13.092;2022-12-15T05:37:18;14.90;;;9.77;;
27303;SDS011;14791;52.392;13.092;2022-12-15T05:39:47;13.30;;;10.23;;
27303;SDS011;14791;52.392;13.092;2022-12-15T05:42:16;11.83;;;9.93;;
27303;SDS011;14791;52.392;13.092;2022-12-15T05:44:45;12.00;;;9.03;;
27303;SDS011;14791;52.392;13.092;2022-12-15T05:47:14;12.53;;;9.53;;
27303;SDS011;14791;52.392;13.092;2022-12-15T05:49:43;13.87;;;10.27;;
27303;SDS011;14791;52.392;13.092;2022-12-15T05:52:12;14.10;;;9.77;;
27303;SDS011;14791;52.392;13.092;2022-12-15T05:54:41;11.63;;;8.83;;
27303;SDS011;14791;52.392;13.092;2022-12-15T05:57:09;12.67;;;9.63;;
27303;SDS011;14791;52.392;13.092;2022-12-15T05:59:38;14.30;;;9.60;;
27303;SDS011;14791;52.392;13.092;2022-12-15T06:02:08;10.63;;;8.27;;
27303;SDS011;14791;52.392;13.092;2022-12-15T06:04:37;15.40;;;10.03;;
27303;SDS011;14791;52.392;13.092;2022-12-15T06:07:06;11.50;;;9.73;;
27303;SDS011;14791;52.392;13.092;2022-12-15T06:09:35;10.30;;;7.70;;
27303;SDS011;14791;52.392;13.092;2022-12-15T06:12:04;10.03;;;7.67;;
27303;SDS011;14791;52.392;13.092;2022-12-15T06:14:33;9.13;;;7.80;;
27303;SDS011;14791;52.392;13.092;2022-12-15T06:17:02;10.03;;;8.60;;
27303;SDS011;14791;52.392;13.092;2022-12-15T06:19:31;12.37;;;9.53;;
27303;SDS011;14791;52.392;13.092;2022-12-15T06:22:00;9.60;;;8.03;;
27303;SDS011;14791;52.392;13.092;2022-12-15T06:24:29;13.23;;;8.80;;
27303;SDS011;14791;52.392;13.092;2022-12-15T06:26:58;11.87;;;8.17;;
27303;SDS011;14791;52.392;13.092;2022-12-15T06:29:26;11.50;;;8.33;;
27303;SDS011;14791;52.392;13.092;2022-12-15T06:31:55;11.47;;;8.70;;
27303;SDS011;14791;52.392;13.092;2022-12-15T06:34:24;8.33;;;7.03;;
27303;SDS011;14791;52.392;13.092;2022-12-15T06:36:53;9.53;;;8.40;;
27303;SDS011;14791;52.392;13.092;2022-12-15T06:39:22;6.37;;;5.83;;
27303;SDS011;14791;52.392;13.092;2022-12-15T06:41:51;6.90;;;6.30;;
27303;SDS011;14791;52.392;13.092;2022-12-15T06:44:20;10.33;;;8.53;;
27303;SDS011;14791;52.392;13.092;2022-12-15T06:46:49;11.10;;;8.47;;
27303;SDS011;14791;52.392;13.092;2022-12-15T06:49:18;11.13;;;8.87;;
27303;SDS011;14791;52.392;13.092;2022-12-15T06:51:48;11.97;;;8.80;;
27303;SDS011;14791;52.392;13.092;2022-12-15T06:54:17;10.57;;;9.07;;
27303;SDS011;14791;52.392;13.092;2022-12-15T06:56:46;12.17;;;8.40;;
27303;SDS011;14791;52.392;13.092;2022-12-15T06:59:14;10.87;;;9.30;;
27303;SDS011;14791;52.392;13.092;2022-12-15T07:01:43;7.10;;;6.40;;
27303;SDS011;14791;52.392;13.092;2022-12-15T07:04:12;9.23;;;8.23;;
27303;SDS011;14791;52.392;13.092;2022-12-15T07:06:41;10.23;;;8.33;;
27303;SDS011;14791;52.392;13.092;2022-12-15T07:09:12;9.20;;;8.20;;
27303;SDS011;14791;52.392;13.092;2022-12-15T07:11:44;9.73;;;8.07;;
27303;SDS011;14791;52.392;13.092;2022-12-15T07:14:15;8.83;;;7.83;;
27303;SDS011;14791;52.392;13.092;2022-12-15T07:16:44;10.30;;;8.47;;
27303;SDS011;14791;52.392;13.092;2022-12-15T07:19:12;12.97;;;8.87;;
27303;SDS011;14791;52.392;13.092;2022-12-15T07:21:41;12.17;;;9.07;;
27303;SDS011;14791;52.392;13.092;2022-12-15T07:24:11;9.47;;;8.13;;
27303;SDS011;14791;52.392;13.092;2022-12-15T07:26:40;11.60;;;8.87;;
27303;SDS011;14791;52.392;13.092;2022-12-15T07:29:10;9.10;;;8.10;;
27303;SDS011;14791;52.392;13.092;2022-12-15T07:31:39;8.93;;;8.03;;
27303;SDS011;14791;52.392;13.092;2022-12-15T07:34:08;9.83;;;8.03;;
27303;SDS011;14791;52.392;13.092;2022-12-15T07:36:37;9.43;;;8.47;;
27303;SDS011;14791;52.392;13.092;2022-12-15T07:39:06;12.17;;;9.50;;
27303;SDS011;14791;52.392;13.092;2022-12-15T07:41:36;8.57;;;7.53;;
27303;SDS011;14791;52.392;13.092;2022-12-15T07:44:06;15.47;;;9.33;;
27303;SDS011;14791;52.392;13.092;2022-12-15T07:46:36;10.23;;;8.93;;
27303;SDS011;14791;52.392;13.092;2022-12-15T07:49:05;10.53;;;8.23;;
27303;SDS011;14791;52.392;13.092;2022-12-15T07:51:33;11.67;;;9.20;;
27303;SDS011;14791;52.392;13.092;2022-12-15T07:54:03;11.13;;;9.20;;
27303;SDS011;14791;52.392;13.092;2022-12-15T07:56:32;13.00;;;9.63;;
27303;SDS011;14791;52.392;13.092;2022-12-15T07:59:01;11.20;;;8.80;;
27303;SDS011;14791;52.392;13.092;2022-12-15T08:01:30;8.47;;;7.57;;
27303;SDS011;14791;52.392;13.092;2022-12-15T08:03:59;11.13;;;9.07;;
27303;SDS011;14791;52.392;13.092;2022-12-15T08:06:28;11.67;;;9.40;;
27303;SDS011;14791;52.392;13.092;2022-12-15T08:08:57;10.63;;;9.47;;
27303;SDS011;14791;52.392;13.092;2022-12-15T08:11:26;11.97;;;9.30;;
27303;SDS011;14791;52.392;13.092;2022-12-15T08:13:57;8.73;;;7.33;;
27303;SDS011;14791;52.392;13.092;2022-12-15T08:16:26;10.73;;;8.87;;
27303;SDS011;14791;52.392;13.092;2022-12-15T08:18:56;12.37;;;9.77;;
27303;SDS011;14791;52.392;13.092;2022-12-15T08:21:25;9.93;;;6.70;;
27303;SDS011;14791;52.392;13.092;2022-12-15T08:23:54;10.23;;;8.67;;
27303;SDS011;14791;52.392;13.092;2022-12-15T08:26:23;10.57;;;8.90;;
27303;SDS011;14791;52.392;13.092;2022-12-15T08:28:52;10.63;;;9.47;;
27303;SDS011;14791;52.392;13.092;2022-12-15T08:31:21;14.20;;;9.73;;
27303;SDS011;14791;52.392;13.092;2022-12-15T08:33:51;9.57;;;7.80;;
27303;SDS011;14791;52.392;13.092;2022-12-15T08:36:20;12.40;;;9.33;;
27303;SDS011;14791;52.392;13.092;2022-12-15T08:38:49;10.03;;;8.30;;
27303;SDS011;14791;52.392;13.092;2022-12-15T08:41:19;10.77;;;9.70;;
27303;SDS011;14791;52.392;13.092;2022-12-15T08:43:50;11.00;;;8.93;;
27303;SDS011;14791;52.392;13.092;2022-12-15T08:46:21;10.27;;;9.27;;
27303;SDS011;14791;52.392;13.092;2022-12-15T08:48:51;11.60;;;9.63;;
27303;SDS011;14791;52.392;13.092;2022-12-15T08:51:21;16.73;;;12.80;;
27303;SDS011;14791;52.392;13.092;2022-12-15T08:53:51;18.90;;;14.27;;
27303;SDS011;14791;52.392;13.092;2022-12-15T08:56:22;15.63;;;11.83;;
27303;SDS011;14791;52.392;13.092;2022-12-15T08:58:56;15.33;;;12.23;;
27303;SDS011;14791;52.392;13.092;2022-12-15T09:01:27;16.17;;;11.77;;
27303;SDS011;14791;52.392;13.092;2022-12-15T09:03:58;16.70;;;12.80;;
27303;SDS011;14791;52.392;13.092;2022-12-15T09:06:28;15.57;;;12.23;;
27303;SDS011;14791;52.392;13.092;2022-12-15T09:09:04;12.93;;;10.50;;
27303;SDS011;14791;52.392;13.092;2022-12-15T09:11:30;12.27;;;9.80;;
27303;SDS011;14791;52.392;13.092;2022-12-15T09:14:00;12.73;;;10.53;;
27303;SDS011;14791;52.392;13.092;2022-12-15T09:16:29;16.40;;;12.97;;
27303;SDS011;14791;52.392;13.092;2022-12-15T09:18:58;14.53;;;11.33;;
27303;SDS011;14791;52.392;13.092;2022-12-15T09:21:28;13.67;;;11.33;;
27303;SDS011;14791;52.392;13.092;2022-12-15T09:23:59;15.63;;;12.17;;
27303;SDS011;14791;52.392;13.092;2022-12-15T09:26:30;17.00;;;12.63;;
27303;SDS011;14791;52.392;13.092;2022-12-15T09:29:00;15.50;;;12.10;;
27303;SDS011;14791;52.392;13.092;2022-12-15T09:31:31;15.83;;;12.97;;
27303;SDS011;14791;52.392;13.092;2022-12-15T09:34:01;16.80;;;13.60;;
27303;SDS011;14791;52.392;13.092;2022-12-15T09:36:30;16.23;;;12.60;;
27303;SDS011;14791;52.392;13.092;2022-12-15T09:39:00;19.27;;;14.07;;
27303;SDS011;14791;52.392;13.092;2022-12-15T09:41:29;15.80;;;11.87;;
27303;SDS011;14791;52.392;13.092;2022-12-15T09:44:03;13.90;;;12.03;;
27303;SDS011;14791;52.392;13.092;2022-12-15T09:49:54;17.07;;;12.73;;
27303;SDS011;14791;52.392;13.092;2022-12-15T09:52:32;16.53;;;12.77;;
27303;SDS011;14791;52.392;13.092;2022-12-15T09:55:01;19.57;;;14.13;;
27303;SDS011;14791;52.392;13.092;2022-12-15T09:57:47;13.93;;;10.47;;
27303;SDS011;14791;52.392;13.092;2022-12-15T10:00:17;10.73;;;9.63;;
27303;SDS011;14791;52.392;13.092;2022-12-15T10:05:39;17.67;;;12.63;;
27303;SDS011;14791;52.392;13.092;2022-12-15T10:08:27;17.80;;;12.50;;
27303;SDS011;14791;52.392;13.092;2022-12-15T10:11:04;15.90;;;13.47;;
27303;SDS011;14791;52.392;13.092;2022-12-15T10:13:38;13.57;;;11.43;;
27303;SDS011;14791;52.392;13.092;2022-12-15T10:16:15;13.83;;;12.10;;
27303;SDS011;14791;52.392;13.092;2022-12-15T10:18:54;18.37;;;13.30;;
27303;SDS011;14791;52.392;13.092;2022-12-15T10:21:39;19.10;;;13.03;;
27303;SDS011;14791;52.392;13.092;2022-12-15T10:24:15;18.43;;;14.80;;
27303;SDS011;14791;52.392;13.092;2022-12-15T10:26:40;15.30;;;12.37;;
27303;SDS011;14791;52.392;13.092;2022-12-15T10:34:44;13.73;;;11.07;;
27303;SDS011;14791;52.392;13.092;2022-12-15T10:37:17;14.33;;;12.23;;
27303;SDS011;14791;52.392;13.092;2022-12-15T10:39:47;14.10;;;11.47;;
27303;SDS011;14791;52.392;13.092;2022-12-15T10:42:24;13.53;;;11.83;;
27303;SDS011;14791;52.392;13.092;2022-12-15T10:44:54;16.30;;;13.80;;
27303;SDS011;14791;52.392;13.092;2022-12-15T10:47:25;17.37;;;14.57;;
27303;SDS011;14791;52.392;13.092;2022-12-15T10:50:17;14.93;;;13.27;;
27303;SDS011;14791;52.392;13.092;2022-12-15T10:52:50;13.67;;;11.47;;
27303;SDS011;14791;52.392;13.092;2022-12-15T10:58:17;14.10;;;12.53;;
27303;SDS011;14791;52.392;13.092;2022-12-15T11:01:03;13.70;;;12.20;;
27303;SDS011;14791;52.392;13.092;2022-12-15T11:03:36;15.47;;;11.90;;
27303;SDS011;14791;52.392;13.092;2022-12-15T11:06:11;15.70;;;13.57;;
27303;SDS011;14791;52.392;13.092;2022-12-15T11:08:43;15.73;;;12.63;;
27303;SDS011;14791;52.392;13.092;2022-12-15T11:11:23;12.47;;;10.97;;
27303;SDS011;14791;52.392;13.092;2022-12-15T11:14:18;14.27;;;11.77;;
27303;SDS011;14791;52.392;13.092;2022-12-15T11:16:53;15.27;;;11.90;;
27303;SDS011;14791;52.392;13.092;2022-12-15T11:27:49;12.50;;;11.27;;
27303;SDS011;14791;52.392;13.092;2022-12-15T11:30:21;14.07;;;12.13;;
27303;SDS011;14791;52.392;13.092;2022-12-15T11:32:58;14.20;;;12.10;;
27303;SDS011;14791;52.392;13.092;2022-12-15T11:38:40;14.57;;;12.87;;
27303;SDS011;14791;52.392;13.092;2022-12-15T11:41:12;15.10;;;12.37;;
27303;SDS011;14791;52.392;13.092;2022-12-15T11:46:26;11.60;;;10.50;;
27303;SDS011;14791;52.392;13.092;2022-12-15T11:49:26;13.03;;;11.63;;
27303;SDS011;14791;52.392;13.092;2022-12-15T11:51:51;13.10;;;11.77;;
27303;SDS011;14791;52.392;13.092;2022-12-15T11:54:27;14.03;;;12.57;;
27303;SDS011;14791;52.392;13.092;2022-12-15T11:57:04;16.13;;;13.03;;
27303;SDS011;14791;52.392;13.092;2022-12-15T12:00:23;13.23;;;11.93;;
27303;SDS011;14791;52.392;13.092;2022-12-15T12:10:58;12.53;;;11.07;;
27303;SDS011;14791;52.392;13.092;2022-12-15T12:16:24;15.57;;;12.73;;
27303;SDS011;14791;52.392;13.092;2022-12-15T12:18:53;16.43;;;13.10;;
27303;SDS011;14791;52.392;13.092;2022-12-15T12:21:26;14.93;;;12.67;;
27303;SDS011;14791;52.392;13.092;2022-12-15T12:23:59;14.20;;;12.73;;
27303;SDS011;14791;52.392;13.092;2022-12-15T12:32:07;11.93;;;10.63;;
27303;SDS011;14791;52.392;13.092;2022-12-15T12:35:06;14.17;;;12.27;;
27303;SDS011;14791;52.392;13.092;2022-12-15T12:38:00;12.20;;;10.93;;
27303;SDS011;14791;52.392;13.092;2022-12-15T12:43:31;13.80;;;12.10;;
27303;SDS011;14791;52.392;13.092;2022-12-15T12:46:03;14.33;;;12.90;;
27303;SDS011;14791;52.392;13.092;2022-12-15T12:51:35;14.80;;;12.30;;
27303;SDS011;14791;52.392;13.092;2022-12-15T12:54:51;15.27;;;12.80;;
27303;SDS011;14791;52.392;13.092;2022-12-15T12:56:57;13.00;;;11.60;;
27303;SDS011;14791;52.392;13.092;2022-12-15T13:04:51;13.00;;;11.63;;
27303;SDS011;14791;52.392;13.092;2022-12-15T13:07:32;14.33;;;12.53;;
27303;SDS011;14791;52.392;13.092;2022-12-15T13:12:51;13.20;;;11.80;;
27303;SDS011;14791;52.392;13.092;2022-12-15T13:18:04;11.23;;;10.23;;
27303;SDS011;14791;52.392;13.092;2022-12-15T13:20:34;13.63;;;12.20;;
27303;SDS011;14791;52.392;13.092;2022-12-15T13:44:27;14.80;;;13.40;;
27303;SDS011;14791;52.392;13.092;2022-12-15T13:47:11;14.93;;;13.53;;
27303;SDS011;14791;52.392;13.092;2022-12-15T13:52:42;13.03;;;11.87;;
27303;SDS011;14791;52.392;13.092;2022-12-15T13:55:17;16.50;;;14.70;;
27303;SDS011;14791;52.392;13.092;2022-12-15T13:57:56;11.93;;;10.80;;
27303;SDS011;14791;52.392;13.092;2022-12-15T14:00:29;14.73;;;13.33;;
27303;SDS011;14791;52.392;13.092;2022-12-15T14:03:09;13.73;;;12.43;;
27303;SDS011;14791;52.392;13.092;2022-12-15T14:05:33;14.00;;;12.60;;
27303;SDS011;14791;52.392;13.092;2022-12-15T14:08:13;12.30;;;11.30;;
27303;SDS011;14791;52.392;13.092;2022-12-15T14:10:45;12.80;;;11.70;;
27303;SDS011;14791;52.392;13.092;2022-12-15T14:13:18;13.23;;;11.93;;
27303;SDS011;14791;52.392;13.092;2022-12-15T14:16:00;12.53;;;11.37;;
27303;SDS011;14791;52.392;13.092;2022-12-15T14:18:31;12.60;;;11.33;;
27303;SDS011;14791;52.392;13.092;2022-12-15T14:21:06;12.33;;;11.20;;
27303;SDS011;14791;52.392;13.092;2022-12-15T14:23:40;13.33;;;12.03;;
27303;SDS011;14791;52.392;13.092;2022-12-15T14:26:12;13.43;;;12.10;;
27303;SDS011;14791;52.392;13.092;2022-12-15T14:28:43;13.90;;;12.37;;
27303;SDS011;14791;52.392;13.092;2022-12-15T14:31:18;11.53;;;10.43;;
27303;SDS011;14791;52.392;13.092;2022-12-15T14:33:56;12.13;;;10.83;;
27303;SDS011;14791;52.392;13.092;2022-12-15T14:36:20;11.53;;;10.43;;
27303;SDS011;14791;52.392;13.092;2022-12-15T14:38:50;12.37;;;11.10;;
27303;SDS011;14791;52.392;13.092;2022-12-15T14:41:31;13.13;;;11.80;;
27303;SDS011;14791;52.392;13.092;2022-12-15T14:44:06;12.00;;;10.53;;
27303;SDS011;14791;52.392;13.092;2022-12-15T14:46:37;12.50;;;11.27;;
27303;SDS011;14791;52.392;13.092;2022-12-15T14:49:06;14.13;;;12.57;;
27303;SDS011;14791;52.392;13.092;2022-12-15T14:51:44;11.47;;;10.30;;
27303;SDS011;14791;52.392;13.092;2022-12-15T14:57:10;12.00;;;10.80;;
27303;SDS011;14791;52.392;13.092;2022-12-15T14:59:32;9.37;;;8.53;;
27303;SDS011;14791;52.392;13.092;2022-12-15T15:04:39;12.30;;;11.17;;
27303;SDS011;14791;52.392;13.092;2022-12-15T15:07:15;11.13;;;10.03;;
27303;SDS011;14791;52.392;13.092;2022-12-15T15:09:45;12.33;;;11.13;;
27303;SDS011;14791;52.392;13.092;2022-12-15T15:12:17;12.20;;;11.10;;
27303;SDS011;14791;52.392;13.092;2022-12-15T15:14:52;14.23;;;12.83;;
27303;SDS011;14791;52.392;13.092;2022-12-15T15:17:35;11.57;;;10.50;;
27303;SDS011;14791;52.392;13.092;2022-12-15T15:20:28;11.83;;;10.63;;
27303;SDS011;14791;52.392;13.092;2022-12-15T15:25:50;11.63;;;10.63;;
27303;SDS011;14791;52.392;13.092;2022-12-15T15:28:21;9.93;;;8.97;;
27303;SDS011;14791;52.392;13.092;2022-12-15T15:30:58;13.07;;;11.83;;
27303;SDS011;14791;52.392;13.092;2022-12-15T15:33:30;12.23;;;11.13;;
27303;SDS011;14791;52.392;13.092;2022-12-15T15:36:00;13.43;;;11.70;;
27303;SDS011;14791;52.392;13.092;2022-12-15T15:38:33;14.00;;;12.63;;
27303;SDS011;14791;52.392;13.092;2022-12-15T15:43:58;11.20;;;10.17;;
27303;SDS011;14791;52.392;13.092;2022-12-15T15:46:29;10.60;;;9.60;;
27303;SDS011;14791;52.392;13.092;2022-12-15T15:49:01;12.70;;;11.33;;
27303;SDS011;14791;52.392;13.092;2022-12-15T15:51:32;13.23;;;12.00;;
27303;SDS011;14791;52.392;13.092;2022-12-15T15:54:06;13.50;;;12.13;;
27303;SDS011;14791;52.392;13.092;2022-12-15T15:56:37;14.23;;;12.37;;
27303;SDS011;14791;52.392;13.092;2022-12-15T15:59:17;10.17;;;9.27;;
27303;SDS011;14791;52.392;13.092;2022-12-15T16:01:42;11.57;;;10.57;;
27303;SDS011;14791;52.392;13.092;2022-12-15T16:04:12;14.27;;;12.77;;
27303;SDS011;14791;52.392;13.092;2022-12-15T16:06:41;11.97;;;10.53;;
27303;SDS011;14791;52.392;13.092;2022-12-15T16:09:10;12.47;;;11.30;;
27303;SDS011;14791;52.392;13.092;2022-12-15T16:11:41;13.10;;;11.50;;
27303;SDS011;14791;52.392;13.092;2022-12-15T16:14:11;11.27;;;10.27;;
27303;SDS011;14791;52.392;13.092;2022-12-15T16:16:41;10.70;;;9.60;;
27303;SDS011;14791;52.392;13.092;2022-12-15T16:19:11;12.70;;;11.40;;
27303;SDS011;14791;52.392;13.092;2022-12-15T16:21:40;12.03;;;10.90;;
27303;SDS011;14791;52.392;13.092;2022-12-15T16:24:14;14.87;;;13.33;;
27303;SDS011;14791;52.392;13.092;2022-12-15T16:26:46;11.37;;;10.37;;
27303;SDS011;14791;52.392;13.092;2022-12-15T16:29:17;11.83;;;10.83;;
27303;SDS011;14791;52.392;13.092;2022-12-15T16:31:47;12.03;;;10.90;;
27303;SDS011;14791;52.392;13.092;2022-12-15T16:34:16;13.57;;;12.20;;
27303;SDS011;14791;52.392;13.092;2022-12-15T16:36:47;11.63;;;10.57;;
27303;SDS011;14791;52.392;13.092;2022-12-15T16:41:55;12.00;;;10.87;;
27303;SDS011;14791;52.392;13.092;2022-12-15T16:44:24;11.27;;;10.17;;
27303;SDS011;14791;52.392;13.092;2022-12-15T16:46:55;12.80;;;11.50;;
27303;SDS011;14791;52.392;13.092;2022-12-15T16:49:25;12.30;;;11.00;;
27303;SDS011;14791;52.392;13.092;2022-12-15T16:51:55;13.23;;;12.03;;